Time;durP1;ratioP1;P1;durP2;ratioP2;P2;SDS_P1;SDS_P2;PMS_P1;PMS_P2;Temp;Humidity;BMP_temperature;BMP_pressure;BME280_temperature;BME280_humidity;BME280_pressure;Samples;Min_cycle;Max_cycle;Signal;HPM_P1;HPM_P2
2023/05/24 00:01:25;;;;;;;23.10;12.30;;;;;;;16.00;100.00;98692.55;274155;1252;22324;-83
2023/05/24 00:07:26;;;;;;;19.10;12.70;;;;;;;15.97;100.00;98691.33;274039;1265;22197;-84
2023/05/24 00:13:28;;;;;;;16.50;11.40;;;;;;;15.95;100.00;98695.16;273822;1254;22315;-84
2023/05/24 00:19:28;;;;;;;13.90;11.00;;;;;;;15.94;100.00;98693.13;274023;1266;23182;-85
2023/05/24 00:25:30;;;;;;;16.60;10.60;;;;;;;15.95;100.00;98691.76;274001;1266;22446;-87
2023/05/24 00:31:31;;;;;;;12.60;9.60;;;;;;;15.95;100.00;98692.39;273718;1266;23541;-84
2023/05/24 00:37:32;;;;;;;12.50;8.50;;;;;;;15.93;100.00;98691.88;274011;1256;22428;-84
2023/05/24 00:43:33;;;;;;;13.50;9.10;;;;;;;15.90;100.00;98694.12;274020;1266;22396;-84
2023/05/24 00:49:34;;;;;;;10.40;9.30;;;;;;;15.89;100.00;98689.73;273869;1257;22416;-84
2023/05/24 00:55:35;;;;;;;13.90;9.40;;;;;;;15.88;100.00;98687.69;273800;1266;22552;-84
2023/05/24 01:01:36;;;;;;;9.30;8.10;;;;;;;15.84;100.00;98687.36;272093;1257;22567;-84
2023/05/24 01:08:09;;;;;;;11.20;9.20;;;;;;;15.83;100.00;98688.71;271504;1256;22348;-84
2023/05/24 01:14:40;;;;;;;11.50;9.80;;;;;;;15.80;100.00;98690.16;274044;1266;22295;-84
2023/05/24 01:20:42;;;;;;;14.10;9.20;;;;;;;15.78;100.00;98689.02;272140;1266;22585;-85
2023/05/24 01:27:06;;;;;;;12.00;9.00;;;;;;;15.80;100.00;98690.33;272204;1266;22539;-83
2023/05/24 01:33:09;;;;;;;13.10;9.80;;;;;;;15.83;100.00;98696.14;271478;1264;22620;-85
2023/05/24 01:39:10;;;;;;;10.50;9.40;;;;;;;15.84;100.00;98698.64;273862;1265;22317;-85
2023/05/24 01:45:18;;;;;;;12.80;10.70;;;;;;;15.80;100.00;98699.88;274085;1266;22432;-84
2023/05/24 01:51:24;;;;;;;13.00;9.30;;;;;;;15.78;100.00;98699.19;273758;1266;22339;-85
2023/05/24 01:57:25;;;;;;;15.60;11.00;;;;;;;15.77;100.00;98699.98;273824;1267;22323;-85
2023/05/24 02:03:26;;;;;;;15.40;10.80;;;;;;;15.74;100.00;98700.52;273964;1266;22716;-84
2023/05/24 02:09:28;;;;;;;17.50;11.40;;;;;;;15.69;100.00;98701.77;273905;1266;23443;-88
2023/05/24 02:15:29;;;;;;;19.40;13.60;;;;;;;15.62;100.00;98702.16;272611;1262;24266;-86
2023/05/24 02:21:31;;;;;;;22.20;15.20;;;;;;;15.62;100.00;98698.31;272933;1251;23102;-86
2023/05/24 02:27:32;;;;;;;21.80;15.10;;;;;;;15.63;100.00;98700.27;274057;1260;22229;-86
2023/05/24 02:33:34;;;;;;;28.50;17.70;;;;;;;15.63;100.00;98702.47;273049;1263;22529;-86
2023/05/24 02:39:34;;;;;;;29.50;19.30;;;;;;;15.61;100.00;98700.59;271267;1265;22634;-84
2023/05/24 02:45:36;;;;;;;32.70;19.00;;;;;;;15.59;100.00;98698.02;272535;1258;22595;-86
2023/05/24 02:51:37;;;;;;;31.40;21.00;;;;;;;15.57;100.00;98703.41;271916;1255;22354;-83
2023/05/24 02:57:38;;;;;;;29.80;20.90;;;;;;;15.53;100.00;98709.08;271667;1257;23661;-85
2023/05/24 03:03:39;;;;;;;39.10;23.30;;;;;;;15.50;100.00;98706.20;272461;1266;22234;-85
2023/05/24 03:09:40;;;;;;;36.80;24.90;;;;;;;15.49;100.00;98705.34;274030;1266;23152;-85
2023/05/24 03:15:41;;;;;;;42.70;26.10;;;;;;;15.51;100.00;98710.04;273872;1266;23649;-85
2023/05/24 03:21:43;;;;;;;37.90;27.10;;;;;;;15.52;100.00;98710.02;273496;1261;22227;-85
2023/05/24 03:27:44;;;;;;;34.80;24.50;;;;;;;15.56;100.00;98711.25;273890;1266;22247;-86
2023/05/24 03:33:45;;;;;;;40.70;28.90;;;;;;;15.57;100.00;98720.45;273807;1268;22189;-86
2023/05/24 03:39:46;;;;;;;41.80;28.20;;;;;;;15.57;100.00;98724.16;274040;1264;22203;-84
2023/05/24 03:45:59;;;;;;;34.60;26.90;;;;;;;15.60;100.00;98726.09;273872;1266;23607;-85
2023/05/24 03:52:00;;;;;;;36.60;27.60;;;;;;;15.63;100.00;98732.26;274008;1266;22377;-86
2023/05/24 03:58:02;;;;;;;36.70;28.40;;;;;;;15.66;100.00;98740.04;274149;1266;22312;-86
2023/05/24 04:04:23;;;;;;;38.40;28.60;;;;;;;15.67;100.00;98746.10;273888;1257;23206;-85
2023/05/24 04:10:26;;;;;;;38.00;28.30;;;;;;;15.68;100.00;98756.11;274160;1256;22388;-85
2023/05/24 04:16:27;;;;;;;41.80;28.30;;;;;;;15.69;100.00;98762.23;273933;1266;22394;-85
2023/05/24 04:22:29;;;;;;;34.60;27.40;;;;;;;15.68;100.00;98771.77;273770;1262;22311;-85
2023/05/24 04:28:31;;;;;;;39.20;27.40;;;;;;;15.67;100.00;98778.42;273793;1266;22544;-85
2023/05/24 04:34:34;;;;;;;40.20;29.60;;;;;;;15.65;100.00;98790.90;273872;1269;22373;-85
2023/05/24 04:40:35;;;;;;;34.90;27.30;;;;;;;15.60;100.00;98800.88;273882;1263;22311;-85
2023/05/24 04:46:36;;;;;;;41.60;31.40;;;;;;;15.58;100.00;98808.32;273962;1256;22430;-85
2023/05/24 04:52:37;;;;;;;40.50;28.70;;;;;;;15.56;100.00;98813.33;274054;1266;22304;-86
2023/05/24 04:58:38;;;;;;;45.70;32.20;;;;;;;15.53;100.00;98820.52;274171;1266;22303;-85
2023/05/24 05:04:40;;;;;;;49.40;34.40;;;;;;;15.52;100.00;98823.92;274125;1263;23424;-87
2023/05/24 05:10:41;;;;;;;50.20;34.70;;;;;;;15.49;100.00;98829.40;274130;1267;22453;-86
2023/05/24 05:16:42;;;;;;;58.00;39.40;;;;;;;15.47;100.00;98834.30;273938;1256;22380;-85
2023/05/24 05:22:49;;;;;;;51.60;37.20;;;;;;;15.47;100.00;98845.33;274189;1265;23252;-86
2023/05/24 05:28:51;;;;;;;51.40;37.20;;;;;;;15.49;100.00;98853.05;274057;1256;22339;-86
2023/05/24 05:34:58;;;;;;;52.50;37.40;;;;;;;15.49;100.00;98859.50;273933;1259;22410;-86
2023/05/24 05:41:03;;;;;;;48.50;35.90;;;;;;;15.52;100.00;98863.02;273822;1266;22400;-86
2023/05/24 05:47:06;;;;;;;49.40;36.70;;;;;;;15.57;100.00;98868.33;273959;1259;23888;-85
2023/05/24 05:53:16;;;;;;;51.10;35.70;;;;;;;15.59;100.00;98869.40;273879;1256;22585;-85
2023/05/24 05:59:18;;;;;;;55.50;37.30;;;;;;;15.63;100.00;98874.80;272894;1267;22452;-85
2023/05/24 06:05:19;;;;;;;53.80;37.70;;;;;;;15.64;100.00;98876.75;271828;1266;23854;-85
2023/05/24 06:11:20;;;;;;;50.80;36.70;;;;;;;15.64;100.00;98881.01;271135;1256;22542;-86
2023/05/24 06:17:23;;;;;;;49.70;35.40;;;;;;;15.65;100.00;98886.67;273503;1257;23487;-86
2023/05/24 06:24:04;;;;;;;52.30;36.30;;;;;;;15.69;100.00;98893.59;273794;1267;22423;-86
2023/05/24 06:30:06;;;;;;;54.00;33.60;;;;;;;15.74;100.00;98904.02;273715;1267;23504;-87
2023/05/24 06:36:07;;;;;;;57.20;34.30;;;;;;;15.80;100.00;98911.13;272848;1264;25364;-85
2023/05/24 06:42:27;;;;;;;44.90;32.50;;;;;;;15.85;100.00;98919.91;272911;1254;22353;-85
2023/05/24 06:48:29;;;;;;;44.30;30.20;;;;;;;15.91;100.00;98927.65;273915;1266;22304;-84
2023/05/24 06:54:30;;;;;;;36.90;28.10;;;;;;;15.95;100.00;98937.62;273865;1257;22221;-86
2023/05/24 07:00:35;;;;;;;40.20;28.20;;;;;;;15.97;100.00;98943.50;273865;1260;24053;-87
2023/05/24 07:06:36;;;;;;;39.20;27.30;;;;;;;15.98;100.00;98948.22;273908;1266;23397;-85
2023/05/24 07:12:37;;;;;;;40.00;29.00;;;;;;;16.00;100.00;98955.21;274069;1253;22328;-85
2023/05/24 07:18:40;;;;;;;28.00;20.40;;;;;;;15.99;100.00;98965.09;273883;1266;23104;-86
2023/05/24 07:24:42;;;;;;;29.80;21.10;;;;;;;15.84;100.00;98973.93;274123;1266;22408;-86
2023/05/24 07:30:44;;;;;;;27.90;21.70;;;;;;;15.69;100.00;98979.84;273708;1259;23348;-87
2023/05/24 07:36:47;;;;;;;31.40;23.00;;;;;;;15.54;100.00;98990.70;273424;1259;23085;-89
2023/05/24 07:42:48;;;;;;;38.00;25.50;;;;;;;15.42;100.00;99001.51;273706;1263;22493;-87
2023/05/24 07:48:52;;;;;;;38.90;26.20;;;;;;;15.27;100.00;99006.10;274021;1267;22455;-87
2023/05/24 07:55:14;;;;;;;33.70;25.80;;;;;;;15.14;100.00;99018.09;273911;1266;22357;-86
2023/05/24 08:01:17;;;;;;;34.70;25.50;;;;;;;15.08;100.00;99026.47;273755;1261;22364;-87
2023/05/24 08:07:21;;;;;;;35.40;25.60;;;;;;;15.04;100.00;99034.23;274115;1257;22382;-88
2023/05/24 08:13:43;;;;;;;41.40;28.70;;;;;;;14.97;100.00;99039.78;273918;1267;23226;-87
2023/05/24 08:20:07;;;;;;;38.20;26.80;;;;;;;14.86;100.00;99046.05;273018;1266;22662;-87
2023/05/24 08:26:26;;;;;;;35.10;25.00;;;;;;;14.79;100.00;99054.53;274083;1269;22329;-87
2023/05/24 08:32:27;;;;;;;29.10;19.90;;;;;;;14.74;100.00;99063.99;274115;1270;22343;-87
2023/05/24 08:38:28;;;;;;;30.60;19.70;;;;;;;14.64;100.00;99072.77;272089;1267;23972;-87
2023/05/24 08:44:30;;;;;;;26.00;17.10;;;;;;;14.56;100.00;99078.71;271628;1266;22501;-87
2023/05/24 08:50:32;;;;;;;23.50;15.60;;;;;;;14.42;100.00;99089.68;273443;1254;22355;-87
2023/05/24 08:56:51;;;;;;;22.00;15.40;;;;;;;14.32;100.00;99098.21;274044;1267;22268;-87
2023/05/24 09:02:52;;;;;;;24.80;17.20;;;;;;;14.26;100.00;99105.29;274122;1266;22374;-88
2023/05/24 09:09:15;;;;;;;21.90;15.20;;;;;;;14.19;100.00;99113.32;273937;1258;22396;-87
2023/05/24 09:15:17;;;;;;;19.90;14.50;;;;;;;14.12;100.00;99121.58;273933;1266;22533;-87
2023/05/24 09:21:58;;;;;;;21.40;14.70;;;;;;;14.05;100.00;99134.56;273731;1267;22351;-87
2023/05/24 09:28:06;;;;;;;20.40;15.70;;;;;;;13.96;100.00;99143.54;273955;1267;22277;-87
2023/05/24 09:34:27;;;;;;;22.00;14.50;;;;;;;13.84;100.00;99152.17;273060;1266;23239;-87
2023/05/24 09:40:28;;;;;;;21.90;14.00;;;;;;;13.75;100.00;99156.49;272217;1267;22335;-87
2023/05/24 09:46:39;;;;;;;25.20;16.80;;;;;;;13.72;100.00;99162.23;273611;1266;24246;-87
2023/05/24 09:52:41;;;;;;;25.10;17.60;;;;;;;13.66;100.00;99164.42;272109;1267;22322;-87
2023/05/24 09:58:44;;;;;;;28.40;17.20;;;;;;;13.63;100.00;99168.27;272994;1269;101241;-88
2023/05/24 10:04:45;;;;;;;19.60;15.60;;;;;;;13.62;100.00;99174.95;273921;1267;22319;-88
2023/05/24 10:10:46;;;;;;;23.90;16.80;;;;;;;13.60;100.00;99178.32;273008;1266;25037;-86
2023/05/24 10:17:31;;;;;;;30.80;19.20;;;;;;;13.60;100.00;99185.00;273072;1257;22433;-87
2023/05/24 10:23:56;;;;;;;26.10;18.00;;;;;;;13.59;100.00;99190.73;274000;1267;22697;-86
2023/05/24 10:30:33;;;;;;;28.80;19.60;;;;;;;13.60;100.00;99189.40;274046;1265;22189;-86
2023/05/24 10:36:50;;;;;;;26.50;18.90;;;;;;;13.71;100.00;99189.03;274163;1267;22962;-87
2023/05/24 10:42:53;;;;;;;25.40;18.20;;;;;;;13.80;100.00;99194.95;274040;1267;22469;-87
2023/05/24 10:48:59;;;;;;;25.00;19.40;;;;;;;13.86;100.00;99198.73;273730;1267;22496;-86
2023/05/24 10:55:12;;;;;;;24.60;20.40;;;;;;;13.85;100.00;99202.33;272241;1257;23290;-86
2023/05/24 11:01:32;;;;;;;24.50;20.30;;;;;;;13.86;100.00;99210.98;271402;1266;22552;-85
2023/05/24 11:07:41;;;;;;;26.80;22.20;;;;;;;13.87;100.00;99214.84;273437;1266;22148;-85
2023/05/24 11:13:49;;;;;;;26.20;21.10;;;;;;;13.87;100.00;99218.86;273381;1258;22317;-86
2023/05/24 11:20:27;;;;;;;22.90;18.40;;;;;;;13.88;100.00;99222.23;274177;1257;23329;-86
2023/05/24 11:26:56;;;;;;;30.70;19.80;;;;;;;13.87;100.00;99216.02;274059;1264;22292;-87
2023/05/24 11:32:57;;;;;;;27.60;19.00;;;;;;;13.91;100.00;99222.08;274017;1265;22358;-85
2023/05/24 11:38:58;;;;;;;25.10;18.40;;;;;;;13.98;100.00;99225.86;273889;1269;22274;-86
2023/05/24 11:45:19;;;;;;;30.80;20.30;;;;;;;14.06;100.00;99229.87;273832;1266;23710;-87
2023/05/24 11:51:51;;;;;;;28.70;20.20;;;;;;;14.15;100.00;99234.84;274002;1266;23333;-86
2023/05/24 11:57:57;;;;;;;24.30;18.00;;;;;;;14.23;100.00;99232.27;273965;1265;22362;-86
2023/05/24 12:04:18;;;;;;;23.90;17.10;;;;;;;14.28;100.00;99239.20;274111;1254;22339;-85
2023/05/24 12:10:19;;;;;;;24.40;17.90;;;;;;;14.27;100.00;99238.33;274137;1256;22310;-85
2023/05/24 12:16:21;;;;;;;25.40;18.00;;;;;;;14.21;100.00;99240.59;274131;1266;22323;-89
2023/05/24 12:22:26;;;;;;;24.20;16.70;;;;;;;14.17;100.00;99242.32;274023;1270;22328;-87
2023/05/24 12:28:34;;;;;;;24.00;16.30;;;;;;;14.12;100.00;99243.66;272252;1258;22569;-88
2023/05/24 12:34:39;;;;;;;29.50;15.70;;;;;;;14.17;100.00;99245.15;272321;1265;24907;-86
2023/05/24 12:40:42;;;;;;;21.00;17.40;;;;;;;14.24;100.00;99241.63;270735;1266;24223;-87
2023/05/24 12:46:44;;;;;;;27.70;20.70;;;;;;;14.24;100.00;99241.23;271566;1267;22288;-87
2023/05/24 12:52:46;;;;;;;26.90;18.10;;;;;;;14.19;100.00;99237.67;272791;1266;22320;-88
2023/05/24 12:58:47;;;;;;;26.40;18.50;;;;;;;14.20;100.00;99235.55;273204;1262;24237;-89
2023/05/24 13:04:50;;;;;;;24.90;19.10;;;;;;;14.22;100.00;99235.55;272251;1265;23585;-87
2023/05/24 13:10:52;;;;;;;23.50;19.00;;;;;;;14.29;100.00;99234.80;271187;1266;22547;-87
2023/05/24 13:16:53;;;;;;;21.20;17.40;;;;;;;14.34;100.00;99234.63;272094;1265;22560;-87
2023/05/24 13:22:55;;;;;;;24.00;17.60;;;;;;;14.34;100.00;99231.57;272545;1266;23034;-87
2023/05/24 13:28:56;;;;;;;19.40;15.00;;;;;;;14.40;100.00;99236.84;273411;1266;22218;-88
2023/05/24 13:34:58;;;;;;;18.40;14.50;;;;;;;14.49;100.00;99234.09;273475;1266;22511;-86
2023/05/24 13:40:59;;;;;;;21.80;14.80;;;;;;;14.60;100.00;99231.23;272462;1267;22573;-87
2023/05/24 13:47:01;;;;;;;17.70;13.90;;;;;;;14.67;100.00;99236.11;272591;1267;22377;-88
2023/05/24 13:53:28;;;;;;;15.80;12.70;;;;;;;14.75;100.00;99235.63;273359;1266;22315;-87
2023/05/24 14:00:20;;;;;;;20.30;13.70;;;;;;;14.83;100.00;99234.51;273894;1259;22291;-87
2023/05/24 14:06:22;;;;;;;20.40;13.80;;;;;;;14.80;100.00;99234.43;273820;1266;22424;-88
2023/05/24 14:12:24;;;;;;;26.30;14.00;;;;;;;14.77;100.00;99236.26;273665;1267;22421;-87
2023/05/24 14:18:25;;;;;;;18.10;13.30;;;;;;;14.76;100.00;99237.36;273678;1266;22377;-87
2023/05/24 14:31:45;;;;;;;17.20;11.90;;;;;;;14.79;100.00;99229.08;273919;1266;23678;-87
2023/05/24 14:45:34;;;;;;;20.50;13.20;;;;;;;15.03;100.00;99223.74;273802;1267;22373;-88
2023/05/24 14:51:35;;;;;;;17.30;11.60;;;;;;;15.10;100.00;99232.93;273642;1266;22442;-86
2023/05/24 14:57:36;;;;;;;16.30;12.30;;;;;;;15.12;100.00;99234.98;273766;1266;22208;-88
2023/05/24 15:03:38;;;;;;;15.80;12.10;;;;;;;15.12;100.00;99242.30;273783;1262;22322;-88
2023/05/24 15:09:39;;;;;;;18.30;13.00;;;;;;;15.16;100.00;99247.64;266150;1267;10002029;-87
2023/05/24 15:16:06;;;;;;;18.00;14.20;;;;;;;15.12;100.00;99243.95;273618;1266;22263;-87
2023/05/24 15:22:10;;;;;;;16.60;13.80;;;;;;;15.03;100.00;99241.30;273857;1266;22491;-88
2023/05/24 15:28:15;;;;;;;21.60;14.20;;;;;;;15.01;100.00;99241.30;273861;1266;22301;-87
2023/05/24 15:34:17;;;;;;;14.60;13.00;;;;;;;15.02;100.00;99242.25;273550;1266;23209;-87
2023/05/24 15:40:20;;;;;;;19.20;14.20;;;;;;;15.05;100.00;99246.02;273736;1266;22353;-87
2023/05/24 15:46:22;;;;;;;16.70;13.70;;;;;;;15.05;100.00;99250.98;273802;1266;22411;-87
2023/05/24 15:52:23;;;;;;;17.70;12.90;;;;;;;15.04;100.00;99253.91;273826;1259;22485;-86
2023/05/24 15:58:25;;;;;;;17.20;13.00;;;;;;;14.96;100.00;99260.85;273909;1267;22367;-87
2023/05/24 16:04:26;;;;;;;17.80;12.70;;;;;;;14.84;100.00;99263.86;273863;1266;23281;-86
2023/05/24 16:17:45;;;;;;;17.90;15.00;;;;;;;14.71;100.00;99276.56;271629;1262;22510;-87
2023/05/24 16:23:46;;;;;;;24.60;18.20;;;;;;;14.68;100.00;99276.89;273379;1267;22647;-88
2023/05/24 16:29:48;;;;;;;16.20;13.60;;;;;;;14.59;100.00;99284.14;272055;1267;22714;-87
2023/05/24 16:35:54;;;;;;;17.00;13.50;;;;;;;14.57;100.00;99292.40;272050;1266;22499;-89
2023/05/24 16:50:39;;;;;;;18.90;14.50;;;;;;;14.49;100.00;99297.35;272698;1266;22549;-87
2023/05/24 16:57:00;;;;;;;21.10;16.40;;;;;;;14.43;100.00;99310.50;273574;1267;22415;-86
2023/05/24 17:03:02;;;;;;;17.80;14.00;;;;;;;14.37;100.00;99314.27;273904;1266;22232;-87
2023/05/24 17:09:05;;;;;;;16.40;12.50;;;;;;;14.33;100.00;99314.97;273853;1269;23139;-86
2023/05/24 17:15:07;;;;;;;13.50;12.00;;;;;;;14.31;100.00;99315.45;273782;1269;22422;-87
2023/05/24 17:21:09;;;;;;;16.40;11.80;;;;;;;14.30;100.00;99321.51;273708;1267;22407;-87
2023/05/24 17:27:12;;;;;;;14.70;12.00;;;;;;;14.27;100.00;99325.83;273831;1267;22474;-89
2023/05/24 17:33:14;;;;;;;14.90;11.50;;;;;;;14.25;100.00;99329.75;273860;1266;22334;-86
2023/05/24 17:47:17;;;;;;;18.60;12.10;;;;;;;14.12;100.00;99346.21;273973;1266;22191;-88
2023/05/24 17:53:46;;;;;;;23.70;13.80;;;;;;;14.06;100.00;99349.35;273920;1266;22221;-87
2023/05/24 17:59:47;;;;;;;17.40;12.30;;;;;;;14.00;100.00;99360.80;273737;1266;22412;-86
2023/05/24 18:06:14;;;;;;;21.60;13.80;;;;;;;13.98;100.00;99363.88;273739;1266;22398;-87
2023/05/24 18:12:16;;;;;;;23.40;14.70;;;;;;;13.92;100.00;99368.10;273741;1259;22322;-87
2023/05/24 18:18:43;;;;;;;16.40;12.10;;;;;;;13.89;100.00;99372.64;273700;1266;22192;-87
2023/05/24 18:25:13;;;;;;;20.80;13.30;;;;;;;13.84;100.00;99373.57;273873;1268;22221;-87
2023/05/24 18:31:14;;;;;;;18.50;12.60;;;;;;;13.81;100.00;99376.07;273876;1267;22206;-87
2023/05/24 18:37:21;;;;;;;20.90;14.30;;;;;;;13.76;100.00;99383.67;273587;1266;22312;-87
2023/05/24 18:43:23;;;;;;;22.90;14.70;;;;;;;13.72;100.00;99395.05;273820;1267;22200;-88
2023/05/24 18:49:28;;;;;;;21.30;14.30;;;;;;;13.71;100.00;99406.76;273754;1266;22346;-88
2023/05/24 18:55:31;;;;;;;18.50;13.00;;;;;;;13.71;100.00;99418.39;273632;1266;22311;-87
2023/05/24 19:01:35;;;;;;;17.70;12.40;;;;;;;13.71;100.00;99429.24;273726;1266;22339;-88
2023/05/24 19:07:37;;;;;;;22.00;14.10;;;;;;;13.68;100.00;99437.56;273664;1266;22237;-88
2023/05/24 19:13:40;;;;;;;17.60;13.00;;;;;;;13.65;100.00;99446.75;272365;1266;24351;-88
2023/05/24 19:19:44;;;;;;;19.50;13.20;;;;;;;13.64;100.00;99451.77;271693;1267;22631;-87
2023/05/24 19:25:48;;;;;;;22.70;13.60;;;;;;;13.62;100.00;99455.52;272990;1266;22477;-88
2023/05/24 19:31:50;;;;;;;20.00;14.20;;;;;;;13.61;100.00;99454.34;272691;1266;22531;-87
2023/05/24 19:37:52;;;;;;;18.40;13.60;;;;;;;13.60;100.00;99457.56;271392;1266;22510;-87
2023/05/24 19:43:55;;;;;;;19.40;13.10;;;;;;;13.60;100.00;99452.92;271613;1266;22542;-87
2023/05/24 19:49:58;;;;;;;25.00;15.00;;;;;;;13.56;100.00;99446.30;271785;1267;22504;-88
2023/05/24 19:56:00;;;;;;;23.00;14.40;;;;;;;13.52;100.00;99447.14;273172;1267;22499;-88
2023/05/24 20:02:03;;;;;;;22.40;14.80;;;;;;;13.49;100.00;99444.23;272445;1266;22205;-88
2023/05/24 20:08:30;;;;;;;20.00;14.20;;;;;;;13.51;100.00;99444.77;271415;1269;22243;-88
2023/05/24 20:14:31;;;;;;;23.80;14.80;;;;;;;13.50;100.00;99444.84;271892;1266;23546;-89
2023/05/24 20:20:36;;;;;;;22.30;14.20;;;;;;;13.47;100.00;99435.86;273477;1266;22344;-88
2023/05/24 20:26:37;;;;;;;23.50;15.30;;;;;;;13.43;100.00;99435.04;272366;1266;22539;-87
2023/05/24 20:32:39;;;;;;;27.50;15.10;;;;;;;13.39;100.00;99435.02;271596;1266;22552;-89
2023/05/24 20:38:41;;;;;;;22.90;14.70;;;;;;;13.39;100.00;99437.00;271196;1269;22436;-88
2023/05/24 20:45:34;;;;;;;25.90;15.90;;;;;;;13.39;100.00;99442.19;273874;1272;23166;-88
2023/05/24 20:59:24;;;;;;;25.30;16.80;;;;;;;13.35;100.00;99433.27;272638;1263;22586;-88
2023/05/24 21:06:10;;;;;;;26.60;16.50;;;;;;;13.33;100.00;99429.71;273647;1267;22989;-88
2023/05/24 21:13:19;;;;;;;24.70;16.60;;;;;;;13.30;100.00;99426.00;271735;1267;22568;-88
2023/05/24 21:19:20;;;;;;;27.10;16.70;;;;;;;13.30;100.00;99432.52;271705;1266;22533;-88
2023/05/24 21:25:21;;;;;;;24.60;15.90;;;;;;;13.29;100.00;99440.61;271483;1267;22585;-89
2023/05/24 21:32:20;;;;;;;25.40;15.20;;;;;;;13.28;100.00;99444.61;271721;1266;22542;-88
2023/05/24 21:38:21;;;;;;;21.20;15.00;;;;;;;13.25;100.00;99446.24;271995;1266;22485;-85
2023/05/24 21:44:48;;;;;;;30.80;16.00;;;;;;;13.22;100.00;99452.80;273925;1269;22987;-86
2023/05/24 21:50:50;;;;;;;;;;;;;;;13.22;100.00;99459.55;271476;1269;22530;-88
2023/05/24 21:56:51;;;;;;;25.40;15.90;;;;;;;13.20;100.00;99460.73;265028;1266;10136666;-86
2023/05/24 22:03:17;;;;;;;26.40;17.10;;;;;;;13.17;100.00;99464.00;272008;1270;22196;-86
2023/05/24 22:09:18;;;;;;;27.60;17.30;;;;;;;13.17;100.00;99468.71;273876;1267;22544;-86
2023/05/24 22:15:19;;;;;;;25.60;15.00;;;;;;;13.16;100.00;99471.85;273557;1266;23528;-86
2023/05/24 22:21:21;;;;;;;28.60;18.20;;;;;;;13.15;100.00;99473.80;273731;1267;22786;-86
2023/05/24 22:27:22;;;;;;;31.50;18.40;;;;;;;13.12;100.00;99486.03;273921;1270;22197;-86
2023/05/24 22:33:24;;;;;;;26.90;17.70;;;;;;;13.13;100.00;99487.60;273632;1269;23646;-86
2023/05/24 22:39:57;;;;;;;31.60;19.20;;;;;;;13.13;100.00;99488.17;273740;1267;23205;-87
2023/05/24 22:45:59;;;;;;;32.20;19.20;;;;;;;13.13;100.00;99491.38;273908;1266;22303;-86
2023/05/24 22:52:00;;;;;;;30.00;17.90;;;;;;;13.09;100.00;99494.48;273786;1266;24221;-87
2023/05/24 22:58:02;;;;;;;27.30;17.00;;;;;;;13.04;100.00;99499.70;273853;1266;22372;-86
2023/05/24 23:04:03;;;;;;;27.90;17.70;;;;;;;13.06;100.00;99496.10;273848;1265;22196;-85
2023/05/24 23:10:04;;;;;;;26.60;17.40;;;;;;;13.07;100.00;99497.91;273758;1266;22323;-86
2023/05/24 23:17:01;;;;;;;25.30;16.50;;;;;;;13.06;100.00;99500.18;273807;1266;22213;-85
2023/05/24 23:23:04;;;;;;;27.60;15.10;;;;;;;13.07;100.00;99511.81;273942;1268;22425;-86
2023/05/24 23:29:06;;;;;;;22.70;15.90;;;;;;;13.08;100.00;99516.55;273949;1269;22258;-86
2023/05/24 23:35:07;;;;;;;27.00;15.50;;;;;;;13.06;100.00;99517.77;273911;1266;23513;-85
2023/05/24 23:41:08;;;;;;;23.70;15.90;;;;;;;13.05;100.00;99520.73;271336;1267;22540;-88
2023/05/24 23:48:00;;;;;;;24.00;15.10;;;;;;;13.03;100.00;99518.06;272081;1266;22172;-86
2023/05/24 23:54:01;;;;;;;23.20;14.40;;;;;;;12.98;100.00;99521.29;272323;1266;22553;-86
